createdAt,value
2022-08-14T00:01:54.821Z,23.35
2022-08-14T00:04:34.741Z,23.38
2022-08-14T00:07:10.592Z,23.36
2022-08-14T00:09:55.161Z,23.19
2022-08-14T00:12:34.098Z,23.07
2022-08-14T00:15:21.775Z,23.12
2022-08-14T00:17:53.266Z,23.19
2022-08-14T00:20:23.995Z,23.23
2022-08-14T00:23:12.182Z,23.26
2022-08-14T00:25:43.931Z,23.21
2022-08-14T00:28:29.088Z,23.11
2022-08-14T00:31:00.563Z,23.14
2022-08-14T00:33:51.038Z,23.12
2022-08-14T00:36:35.992Z,23.06
2022-08-14T00:39:06.650Z,23.07
2022-08-14T00:41:39.184Z,23.08
2022-08-14T00:44:07.369Z,23.05
2022-08-14T00:46:37.729Z,22.99
2022-08-14T00:49:06.194Z,23.03
2022-08-14T00:51:37.896Z,22.91
2022-08-14T00:54:11.134Z,22.88
2022-08-14T00:56:55.220Z,22.91
2022-08-14T00:59:28.447Z,22.82
2022-08-14T01:01:58.272Z,22.81
2022-08-14T01:04:38.188Z,22.78
2022-08-14T01:07:19.777Z,22.64
2022-08-14T01:09:53.196Z,22.62
2022-08-14T01:12:27.040Z,22.65
2022-08-14T01:14:59.119Z,22.59
2022-08-14T01:17:49.785Z,22.57
2022-08-14T01:20:39.577Z,22.69
2022-08-14T01:23:16.461Z,22.51
2022-08-14T01:25:48.762Z,22.52
2022-08-14T01:28:34.298Z,22.55
2022-08-14T01:31:08.597Z,22.48
2022-08-14T01:33:44.697Z,22.59
2022-08-14T01:36:27.986Z,22.49
2022-08-14T01:38:58.993Z,22.56
2022-08-14T01:41:30.103Z,22.52
2022-08-14T01:44:01.660Z,22.54
2022-08-14T01:46:36.653Z,22.43
2022-08-14T01:49:10.044Z,22.52
2022-08-14T01:51:39.309Z,22.46
2022-08-14T01:54:11.129Z,22.45
2022-08-14T01:56:42.844Z,22.49
2022-08-14T01:59:18.526Z,22.41
2022-08-14T02:01:58.692Z,22.51
2022-08-14T02:04:54.804Z,22.53
2022-08-14T02:07:34.280Z,22.55
2022-08-14T02:10:13.116Z,22.54
2022-08-14T02:12:46.189Z,22.43
2022-08-14T02:15:22.063Z,22.47
2022-08-14T02:17:50.136Z,22.38
2022-08-14T02:20:23.801Z,22.36
2022-08-14T02:22:54.500Z,22.40
2022-08-14T02:25:23.435Z,22.40
2022-08-14T02:28:23.643Z,22.36
2022-08-14T02:30:44.616Z,22.34
2022-08-14T02:33:12.809Z,22.32
2022-08-14T02:35:43.347Z,22.48
2022-08-14T02:38:11.893Z,22.46
2022-08-14T02:40:58.622Z,22.43
2022-08-14T02:43:36.447Z,22.48
2022-08-14T02:46:09.453Z,22.44
2022-08-14T02:49:04.066Z,22.47
2022-08-14T02:51:30.268Z,22.50
2022-08-14T02:53:58.491Z,22.33
2022-08-14T02:56:29.968Z,22.37
2022-08-14T02:59:17.118Z,22.27
2022-08-14T03:01:50.981Z,22.25
2022-08-14T03:04:22.932Z,22.36
2022-08-14T03:06:58.239Z,22.27
2022-08-14T03:10:25.089Z,22.26
2022-08-14T03:12:32.467Z,22.22
2022-08-14T03:15:13.949Z,22.33
2022-08-14T03:17:57.807Z,22.32
2022-08-14T03:20:28.692Z,22.34
2022-08-14T03:22:59.382Z,22.28
2022-08-14T03:25:33.275Z,22.19
2022-08-14T03:28:07.105Z,22.21
2022-08-14T03:30:39.014Z,22.08
2022-08-14T03:33:10.954Z,22.11
2022-08-14T03:36:05.552Z,22.04
2022-08-14T03:39:14.472Z,22.16
2022-08-14T03:41:18.212Z,22.09
2022-08-14T03:43:57.007Z,22.02
2022-08-14T03:46:38.753Z,22.16
2022-08-14T03:49:14.016Z,22.11
2022-08-14T03:51:51.975Z,22.00
2022-08-14T03:54:21.271Z,22.10
2022-08-14T03:56:50.181Z,22.09
2022-08-14T03:59:18.281Z,22.09
2022-08-14T04:02:01.668Z,22.02
2022-08-14T04:04:31.398Z,21.96
2022-08-14T04:07:00.435Z,22.03
2022-08-14T04:09:27.851Z,21.99
2022-08-14T04:11:56.187Z,21.98
2022-08-14T04:14:25.407Z,21.80
2022-08-14T04:16:52.827Z,21.85
2022-08-14T04:19:23.880Z,21.94
2022-08-14T04:22:02.349Z,22.11
2022-08-14T04:24:38.002Z,22.03
2022-08-14T04:27:10.202Z,21.96
2022-08-14T04:29:45.091Z,22.02
2022-08-14T04:33:02.396Z,22.09
2022-08-14T04:35:01.295Z,22.14
2022-08-14T04:37:53.954Z,22.15
2022-08-14T04:40:40.773Z,22.17
2022-08-14T04:43:32.469Z,22.16
2022-08-14T04:46:56.110Z,22.21
2022-08-14T04:49:07.947Z,22.43
2022-08-14T04:51:46.359Z,22.49
2022-08-14T04:54:13.965Z,22.48
2022-08-14T04:56:44.330Z,22.45
2022-08-14T04:59:12.803Z,22.46
2022-08-14T05:01:47.806Z,22.49
2022-08-14T05:04:21.752Z,22.70
2022-08-14T05:06:53.537Z,22.54
2022-08-14T05:09:23.124Z,22.87
2022-08-14T05:11:51.464Z,22.92
2022-08-14T05:14:45.357Z,22.99
2022-08-14T05:17:11.875Z,23.08
2022-08-14T05:19:44.379Z,23.16
2022-08-14T05:22:16.640Z,23.40
2022-08-14T05:24:51.753Z,23.65
2022-08-14T05:27:22.568Z,23.53
2022-08-14T05:29:53.005Z,23.56
2022-08-14T05:32:21.157Z,23.60
2022-08-14T05:34:48.507Z,23.77
2022-08-14T05:37:15.847Z,23.71
2022-08-14T05:39:43.755Z,23.94
2022-08-14T05:42:22.079Z,23.96
2022-08-14T05:44:55.761Z,24.08
2022-08-14T05:47:24.270Z,24.18
2022-08-14T05:49:59.793Z,24.35
2022-08-14T05:52:38.942Z,24.43
2022-08-14T05:55:09.300Z,24.44
2022-08-14T05:57:53.929Z,24.70
2022-08-14T06:00:29.891Z,24.78
2022-08-14T06:03:00.541Z,24.88
2022-08-14T06:05:29.193Z,25.01
2022-08-14T06:08:00.452Z,25.20
2022-08-14T06:10:29.985Z,25.31
2022-08-14T06:12:58.567Z,25.54
2022-08-14T06:15:29.999Z,25.72
2022-08-14T06:18:00.558Z,25.88
2022-08-14T06:20:30.183Z,25.89
2022-08-14T06:22:59.229Z,26.04
2022-08-14T06:25:27.041Z,26.42
2022-08-14T06:27:55.863Z,26.51
2022-08-14T06:30:30.231Z,26.75
2022-08-14T06:33:15.785Z,26.90
2022-08-14T06:35:43.905Z,27.09
2022-08-14T06:38:17.528Z,27.34
2022-08-14T06:40:46.099Z,27.49
2022-08-14T06:43:15.491Z,27.74
2022-08-14T06:45:50.093Z,27.78
2022-08-14T06:48:23.862Z,28.10
2022-08-14T06:50:53.762Z,28.05
2022-08-14T06:53:21.766Z,28.22
2022-08-14T06:55:58.066Z,28.36
2022-08-14T06:58:30.810Z,28.47
2022-08-14T07:01:24.942Z,28.70
2022-08-14T07:04:23.676Z,28.81
2022-08-14T07:06:55.530Z,28.92
2022-08-14T07:09:27.967Z,29.08
2022-08-14T07:11:56.374Z,29.29
2022-08-14T07:14:25.239Z,29.44
2022-08-14T07:16:53.914Z,29.70
2022-08-14T07:19:21.523Z,29.70
2022-08-14T07:21:50.266Z,29.83
2022-08-14T07:24:21.969Z,29.89
2022-08-14T07:26:53.971Z,30.08
2022-08-14T07:29:26.023Z,29.87
2022-08-14T07:31:54.066Z,29.93
2022-08-14T07:34:36.480Z,30.08
2022-08-14T07:37:08.641Z,30.25
2022-08-14T07:39:37.327Z,30.13
2022-08-14T07:42:06.768Z,30.40
2022-08-14T07:44:45.886Z,30.31
2022-08-14T07:47:16.762Z,30.55
2022-08-14T07:49:55.551Z,30.55
2022-08-14T07:52:30.498Z,30.88
2022-08-14T07:55:00.383Z,30.67
2022-08-14T07:57:28.175Z,30.97
2022-08-14T07:59:55.519Z,30.82
2022-08-14T08:02:23.877Z,30.86
2022-08-14T08:04:59.448Z,30.72
2022-08-14T08:07:30.023Z,30.15
2022-08-14T08:10:00.901Z,30.63
2022-08-14T08:12:32.313Z,30.51
2022-08-14T08:15:07.935Z,30.77
2022-08-14T08:17:53.539Z,30.80
2022-08-14T08:20:27.784Z,30.99
2022-08-14T08:23:00.654Z,30.75
2022-08-14T08:25:40.074Z,30.59
2022-08-14T08:28:25.056Z,30.86
2022-08-14T08:30:56.997Z,30.89
2022-08-14T08:33:32.101Z,30.97
2022-08-14T08:36:03.474Z,31.16
2022-08-14T08:39:18.185Z,31.09
2022-08-14T08:41:18.639Z,31.09
2022-08-14T08:43:47.051Z,31.39
2022-08-14T08:46:23.609Z,31.41
2022-08-14T08:51:33.488Z,31.64
2022-08-14T08:54:15.364Z,31.58
2022-08-14T08:56:52.059Z,31.53
2022-08-14T08:59:20.908Z,31.62
2022-08-14T09:02:10.643Z,31.71
2022-08-14T09:04:45.884Z,31.76
2022-08-14T09:07:28.014Z,31.91
2022-08-14T09:09:58.884Z,31.94
2022-08-14T09:12:32.362Z,32.06
2022-08-14T09:15:02.416Z,32.18
2022-08-14T09:17:29.947Z,32.28
2022-08-14T09:20:02.174Z,32.26
2022-08-14T09:22:34.951Z,32.20
2022-08-14T09:25:07.642Z,32.19
2022-08-14T09:27:37.795Z,32.32
2022-08-14T09:30:30.723Z,32.35
2022-08-14T09:33:15.738Z,32.46
2022-08-14T09:35:57.199Z,32.60
2022-08-14T09:38:36.438Z,32.55
2022-08-14T09:41:23.963Z,32.53
2022-08-14T09:44:21.466Z,32.53
2022-08-14T09:46:53.975Z,32.43
2022-08-14T09:49:40.041Z,32.50
2022-08-14T09:52:33.455Z,32.71
2022-08-14T09:55:02.836Z,32.77
2022-08-14T09:57:31.542Z,32.61
2022-08-14T09:59:59.134Z,32.63
2022-08-14T10:02:45.559Z,32.80
2022-08-14T10:05:13.962Z,32.75
2022-08-14T10:07:53.651Z,32.91
2022-08-14T10:10:35.547Z,32.81
2022-08-14T10:13:07.138Z,32.96
2022-08-14T10:15:45.875Z,33.19
2022-08-14T10:18:18.308Z,33.30
2022-08-14T10:21:00.859Z,33.39
2022-08-14T10:23:40.370Z,33.72
2022-08-14T10:26:08.851Z,33.77
2022-08-14T10:29:17.541Z,33.84
2022-08-14T10:31:43.260Z,33.69
2022-08-14T10:34:18.317Z,33.61
2022-08-14T10:36:50.169Z,33.94
2022-08-14T10:39:29.949Z,34.01
2022-08-14T10:42:16.442Z,33.89
2022-08-14T10:44:49.008Z,33.93
2022-08-14T10:47:41.385Z,34.14
2022-08-14T10:50:12.126Z,34.12
2022-08-14T10:52:43.834Z,34.21
2022-08-14T10:55:16.453Z,34.21
2022-08-14T10:58:01.946Z,34.30
2022-08-14T11:00:35.538Z,34.38
2022-08-14T11:03:11.013Z,34.33
2022-08-14T11:05:47.334Z,34.16
2022-08-14T11:08:17.692Z,34.28
2022-08-14T11:10:52.685Z,34.50
2022-08-14T11:13:24.103Z,34.59
2022-08-14T11:15:52.653Z,34.60
2022-08-14T11:18:32.303Z,34.58
2022-08-14T11:21:06.527Z,34.63
2022-08-14T11:23:37.902Z,34.71
2022-08-14T11:26:08.016Z,34.84
2022-08-14T11:28:47.117Z,34.73
2022-08-14T11:31:23.201Z,34.83
2022-08-14T11:33:57.795Z,34.90
2022-08-14T11:36:35.184Z,34.85
2022-08-14T11:39:34.774Z,34.68
2022-08-14T11:42:55.326Z,34.63
2022-08-14T11:45:00.350Z,34.73
2022-08-14T11:47:35.094Z,34.71
2022-08-14T11:50:13.251Z,34.72
2022-08-14T11:52:40.788Z,34.57
2022-08-14T11:55:12.772Z,34.72
2022-08-14T11:57:41.491Z,34.72
2022-08-14T12:00:19.741Z,34.81
2022-08-14T12:03:02.965Z,34.75
2022-08-14T12:05:39.651Z,34.63
2022-08-14T12:08:11.106Z,34.26
2022-08-14T12:10:43.454Z,34.44
2022-08-14T12:13:19.128Z,34.40
2022-08-14T12:15:57.567Z,34.26
2022-08-14T12:18:35.853Z,34.53
2022-08-14T12:21:19.620Z,34.67
2022-08-14T12:23:50.375Z,34.76
2022-08-14T12:26:39.302Z,34.78
2022-08-14T12:29:14.453Z,34.94
2022-08-14T12:31:47.414Z,34.89
2022-08-14T12:34:22.755Z,34.96
2022-08-14T12:37:05.586Z,34.92
2022-08-14T12:39:40.123Z,35.22
2022-08-14T12:42:08.067Z,35.12
2022-08-14T12:44:38.279Z,35.12
2022-08-14T12:47:15.161Z,35.46
2022-08-14T12:49:54.248Z,35.36
2022-08-14T12:52:41.535Z,35.43
2022-08-14T12:55:17.654Z,35.32
2022-08-14T12:57:49.388Z,34.96
2022-08-14T13:00:25.446Z,34.99
2022-08-14T13:02:55.809Z,34.85
2022-08-14T13:05:30.122Z,34.82
2022-08-14T13:07:59.129Z,34.80
2022-08-14T13:10:46.909Z,34.63
2022-08-14T13:13:17.552Z,34.54
2022-08-14T13:15:47.749Z,34.29
2022-08-14T13:18:17.019Z,34.01
2022-08-14T13:20:51.477Z,33.89
2022-08-14T13:23:30.691Z,33.94
2022-08-14T13:26:00.858Z,33.90
2022-08-14T13:28:30.296Z,33.82
2022-08-14T13:31:11.331Z,33.76
2022-08-14T13:33:40.779Z,33.72
2022-08-14T13:36:23.628Z,33.70
2022-08-14T13:38:53.654Z,33.71
2022-08-14T13:41:31.546Z,33.58
2022-08-14T13:44:00.586Z,33.42
2022-08-14T13:46:28.415Z,33.49
2022-08-14T13:48:57.640Z,33.45
2022-08-14T13:51:32.091Z,33.54
2022-08-14T13:54:10.803Z,33.26
2022-08-14T13:56:40.420Z,33.36
2022-08-14T13:59:09.194Z,33.32
2022-08-14T14:01:39.203Z,33.23
2022-08-14T14:04:19.322Z,33.24
2022-08-14T14:06:49.779Z,33.32
2022-08-14T14:09:27.147Z,33.30
2022-08-14T14:12:00.522Z,33.31
2022-08-14T14:14:29.731Z,33.19
2022-08-14T14:17:13.700Z,33.14
2022-08-14T14:19:46.400Z,33.26
2022-08-14T14:23:00.938Z,33.21
2022-08-14T14:25:06.010Z,33.20
2022-08-14T14:27:41.516Z,33.20
2022-08-14T14:30:31.961Z,33.36
2022-08-14T14:33:05.150Z,33.35
2022-08-14T14:35:43.884Z,33.16
2022-08-14T14:38:17.547Z,33.26
2022-08-14T14:41:00.483Z,33.32
2022-08-14T14:43:28.815Z,33.34
2022-08-14T14:45:56.614Z,33.36
2022-08-14T14:48:28.180Z,33.29
2022-08-14T14:50:58.368Z,33.49
2022-08-14T14:53:28.345Z,33.56
2022-08-14T14:56:47.200Z,33.63
2022-08-14T14:58:46.840Z,33.67
2022-08-14T15:01:17.421Z,33.74
2022-08-14T15:03:46.059Z,33.84
2022-08-14T15:06:17.679Z,33.84
2022-08-14T15:08:55.948Z,33.69
2022-08-14T15:11:25.398Z,33.79
2022-08-14T15:13:53.514Z,33.89
2022-08-14T15:16:21.431Z,33.65
2022-08-14T15:18:48.993Z,33.78
2022-08-14T15:21:16.924Z,33.72
2022-08-14T15:23:46.057Z,33.70
2022-08-14T15:26:23.981Z,33.63
2022-08-14T15:29:03.221Z,33.80
2022-08-14T15:31:37.103Z,33.69
2022-08-14T15:34:42.191Z,33.52
2022-08-14T15:36:59.889Z,33.60
2022-08-14T15:39:29.499Z,33.45
2022-08-14T15:42:02.593Z,33.63
2022-08-14T15:44:34.319Z,33.53
2022-08-14T15:47:06.982Z,33.48
2022-08-14T15:49:37.219Z,33.49
2022-08-14T15:52:07.196Z,33.36
2022-08-14T15:54:35.555Z,33.39
2022-08-14T15:57:09.181Z,33.29
2022-08-14T15:59:56.822Z,33.26
2022-08-14T16:02:27.839Z,33.29
2022-08-14T16:04:56.243Z,33.22
2022-08-14T16:07:25.235Z,33.08
2022-08-14T16:10:25.367Z,32.96
2022-08-14T16:12:47.558Z,33.04
2022-08-14T16:15:16.829Z,33.12
2022-08-14T16:17:46.554Z,32.80
2022-08-14T16:20:42.348Z,32.92
2022-08-14T16:23:10.384Z,32.83
2022-08-14T16:25:42.245Z,32.82
2022-08-14T16:28:27.046Z,32.90
2022-08-14T16:30:55.199Z,32.82
2022-08-14T16:33:56.831Z,32.72
2022-08-14T16:36:29.940Z,32.57
2022-08-14T16:39:04.475Z,32.45
2022-08-14T16:41:32.008Z,32.36
2022-08-14T16:44:01.723Z,32.36
2022-08-14T16:46:32.458Z,32.05
2022-08-14T16:49:01.925Z,31.81
2022-08-14T16:51:30.924Z,31.80
2022-08-14T16:54:04.725Z,31.68
2022-08-14T16:56:48.592Z,31.60
2022-08-14T16:59:20.198Z,31.54
2022-08-14T17:02:00.760Z,31.49
2022-08-14T17:04:34.651Z,31.61
2022-08-14T17:07:15.338Z,31.50
2022-08-14T17:09:52.963Z,31.48
2022-08-14T17:12:35.232Z,31.45
2022-08-14T17:15:15.022Z,31.54
2022-08-14T17:17:57.917Z,31.29
2022-08-14T17:20:53.971Z,31.10
2022-08-14T17:23:17.071Z,30.87
2022-08-14T17:25:50.903Z,30.93
2022-08-14T17:28:51.038Z,30.96
2022-08-14T17:31:08.432Z,31.02
2022-08-14T17:33:44.132Z,30.98
2022-08-14T17:36:21.419Z,30.93
2022-08-14T17:39:13.378Z,30.90
2022-08-14T17:41:47.684Z,30.90
2022-08-14T17:44:45.115Z,30.79
2022-08-14T17:47:18.207Z,30.74
2022-08-14T17:49:52.158Z,30.69
2022-08-14T17:52:34.280Z,30.58
2022-08-14T17:55:06.718Z,30.54
2022-08-14T17:57:35.195Z,30.51
2022-08-14T18:00:04.073Z,30.56
2022-08-14T18:02:33.800Z,30.43
2022-08-14T18:05:03.128Z,30.34
2022-08-14T18:07:59.342Z,30.34
2022-08-14T18:10:52.009Z,30.30
2022-08-14T18:13:10.744Z,30.06
2022-08-14T18:15:44.962Z,29.97
2022-08-14T18:18:19.390Z,30.07
2022-08-14T18:21:39.556Z,29.95
2022-08-14T18:23:42.162Z,29.91
2022-08-14T18:26:37.540Z,29.85
2022-08-14T18:28:59.186Z,29.83
2022-08-14T18:31:26.686Z,29.76
2022-08-14T18:34:31.261Z,29.66
2022-08-14T18:37:13.856Z,29.59
2022-08-14T18:40:01.883Z,29.58
2022-08-14T18:42:40.583Z,29.42
2022-08-14T18:45:28.928Z,29.35
2022-08-14T18:48:33.556Z,29.27
2022-08-14T18:51:13.244Z,29.17
2022-08-14T18:53:52.088Z,29.22
2022-08-14T18:56:55.074Z,29.17
2022-08-14T18:59:43.237Z,29.10
2022-08-14T19:02:30.571Z,29.03
2022-08-14T19:05:02.343Z,28.92
2022-08-14T19:07:33.428Z,28.89
2022-08-14T19:10:06.636Z,28.82
2022-08-14T19:12:52.953Z,28.66
2022-08-14T19:15:28.945Z,28.64
2022-08-14T19:18:13.814Z,28.58
2022-08-14T19:20:46.479Z,28.54
2022-08-14T19:23:21.285Z,28.52
2022-08-14T19:25:57.095Z,28.49
2022-08-14T19:28:33.527Z,28.42
2022-08-14T19:31:26.082Z,28.36
2022-08-14T19:34:07.172Z,28.36
2022-08-14T19:37:04.295Z,28.25
2022-08-14T19:39:53.244Z,28.28
2022-08-14T19:42:30.598Z,28.13
2022-08-14T19:44:58.371Z,28.00
2022-08-14T19:47:38.795Z,27.92
2022-08-14T19:50:38.283Z,27.87
2022-08-14T19:53:11.111Z,27.79
2022-08-14T19:55:45.723Z,27.83
2022-08-14T19:58:13.683Z,27.75
2022-08-14T20:00:51.989Z,27.73
2022-08-14T20:03:24.131Z,27.71
2022-08-14T20:06:05.516Z,27.72
2022-08-14T20:11:00.561Z,27.58
2022-08-14T20:12:02.255Z,27.51
2022-08-14T20:14:27.970Z,27.47
2022-08-14T20:17:06.392Z,27.37
2022-08-14T20:19:37.617Z,27.38
2022-08-14T20:22:36.785Z,27.31
2022-08-14T20:25:12.087Z,27.18
2022-08-14T20:27:44.109Z,27.08
2022-08-14T20:30:34.725Z,27.08
2022-08-14T20:33:07.495Z,27.01
2022-08-14T20:35:42.152Z,26.98
2022-08-14T20:38:33.329Z,26.96
2022-08-14T20:41:06.552Z,26.99
2022-08-14T20:43:55.965Z,26.97
2022-08-14T20:46:31.021Z,26.95
2022-08-14T20:49:03.546Z,26.98
2022-08-14T20:51:47.521Z,26.88
2022-08-14T20:54:34.721Z,26.91
2022-08-14T20:57:09.274Z,26.79
2022-08-14T20:59:43.306Z,26.70
2022-08-14T21:02:34.770Z,26.59
2022-08-14T21:05:19.615Z,26.60
2022-08-14T21:07:50.853Z,26.61
2022-08-14T21:10:35.280Z,26.62
2022-08-14T21:13:25.907Z,26.56
2022-08-14T21:15:57.915Z,26.47
2022-08-14T21:18:31.875Z,26.56
2022-08-14T21:21:06.924Z,26.51
2022-08-14T21:23:54.114Z,26.42
2022-08-14T21:26:51.242Z,26.43
2022-08-14T21:29:19.029Z,26.44
2022-08-14T21:31:55.596Z,26.31
2022-08-14T21:34:31.643Z,26.37
2022-08-14T21:37:07.785Z,26.33
2022-08-14T21:39:38.015Z,26.24
2022-08-14T21:42:06.165Z,26.16
2022-08-14T21:44:42.740Z,26.15
2022-08-14T21:47:12.692Z,26.14
2022-08-14T21:49:43.170Z,26.12
2022-08-14T21:52:49.367Z,26.09
2022-08-14T21:55:09.312Z,26.12
2022-08-14T21:58:44.501Z,26.19
2022-08-14T22:00:39.776Z,26.11
2022-08-14T22:03:19.099Z,26.16
2022-08-14T22:05:53.383Z,26.08
2022-08-14T22:08:26.986Z,26.05
2022-08-14T22:10:55.168Z,26.08
2022-08-14T22:13:26.437Z,26.06
2022-08-14T22:15:59.725Z,25.96
2022-08-14T22:18:29.731Z,25.97
2022-08-14T22:20:57.522Z,25.94
2022-08-14T22:23:26.097Z,25.95
2022-08-14T22:25:55.059Z,25.92
2022-08-14T22:28:33.159Z,25.94
2022-08-14T22:31:10.909Z,25.95
2022-08-14T22:33:39.247Z,25.93
2022-08-14T22:36:27.408Z,25.96
2022-08-14T22:39:01.702Z,25.89
2022-08-14T22:41:42.169Z,25.87
2022-08-14T22:44:14.675Z,25.92
2022-08-14T22:46:43.271Z,25.80
2022-08-14T22:49:16.216Z,25.81
2022-08-14T22:51:58.956Z,25.63
2022-08-14T22:54:52.638Z,25.58
2022-08-14T22:57:15.949Z,25.55
2022-08-14T22:59:43.403Z,25.58
2022-08-14T23:02:22.222Z,25.56
2022-08-14T23:04:59.287Z,25.54
2022-08-14T23:08:56.774Z,25.51
2022-08-14T23:10:31.775Z,25.52
2022-08-14T23:13:03.586Z,25.52
2022-08-14T23:15:32.518Z,25.51
2022-08-14T23:18:03.281Z,25.51
2022-08-14T23:20:33.663Z,25.41
2022-08-14T23:23:11.773Z,25.48
2022-08-14T23:25:58.388Z,25.46
2022-08-14T23:28:33.633Z,25.44
2022-08-14T23:31:34.331Z,25.35
2022-08-14T23:34:08.716Z,25.25
2022-08-14T23:36:53.671Z,25.21
2022-08-14T23:39:30.173Z,25.16
2022-08-14T23:42:09.167Z,25.15
2022-08-14T23:44:38.890Z,25.20
2022-08-14T23:47:11.598Z,25.20
2022-08-14T23:50:01.297Z,25.16
2022-08-14T23:52:51.605Z,25.22
2022-08-14T23:55:34.308Z,25.30
2022-08-14T23:58:02.601Z,25.23
